Time;durP1;ratioP1;P1;durP2;ratioP2;P2;SDS_P1;SDS_P2;PMS_P1;PMS_P2;Temp;Humidity;BMP_temperature;BMP_pressure;BME280_temperature;BME280_humidity;BME280_pressure;Samples;Min_cycle;Max_cycle;Signal;HPM_P1;HPM_P2
2023/09/10 00:02:38;;;;;;;11.13;10.23;;;22.20;36.50;;;;;;10399949;28;20981;-70
2023/09/10 00:07:41;;;;;;;11.70;10.80;;;22.20;37.00;;;;;;10399911;28;20226;-69
2023/09/10 00:12:45;;;;;;;12.13;11.10;;;22.20;36.70;;;;;;10399789;28;20233;-69
2023/09/10 00:17:49;;;;;;;10.50;9.70;;;22.20;36.90;;;;;;10399320;28;20232;-70
2023/09/10 00:22:52;;;;;;;12.37;11.27;;;22.20;37.30;;;;;;10398827;28;20237;-69
2023/09/10 00:27:57;;;;;;;13.57;12.37;;;22.10;36.80;;;;;;10399716;28;20287;-70
2023/09/10 00:33:02;;;;;;;12.43;11.50;;;22.00;38.20;;;;;;10400074;28;20237;-70
2023/09/10 00:38:05;;;;;;;12.83;11.87;;;21.90;37.60;;;;;;10415202;28;20271;-70
2023/09/10 00:43:08;;;;;;;13.90;12.70;;;21.70;37.30;;;;;;10440102;28;20220;-69
2023/09/10 00:48:13;;;;;;;12.33;11.33;;;21.60;37.60;;;;;;10439578;28;20316;-70
2023/09/10 00:53:17;;;;;;;13.23;12.17;;;21.50;37.80;;;;;;10438604;28;20774;-70
2023/09/10 00:58:21;;;;;;;12.47;11.33;;;21.40;37.70;;;;;;10437415;28;20233;-70
2023/09/10 01:03:27;;;;;;;12.43;11.43;;;21.40;37.70;;;;;;10434979;28;20856;-70
2023/09/10 01:08:30;;;;;;;13.43;12.33;;;21.40;38.20;;;;;;10438053;28;20235;-70
2023/09/10 01:13:45;;;;;;;12.27;11.23;;;21.40;37.70;;;;;;10438883;28;20312;-70
2023/09/10 01:18:56;;;;;;;10.80;9.90;;;21.50;38.70;;;;;;10437804;28;20253;-70
2023/09/10 01:24:09;;;;;;;12.50;11.50;;;21.50;38.60;;;;;;10438070;28;20225;-70
2023/09/10 01:29:14;;;;;;;12.27;11.17;;;21.50;38.40;;;;;;10437649;28;20796;-70
2023/09/10 01:34:20;;;;;;;11.83;10.93;;;21.60;37.90;;;;;;10452528;28;20256;-70
2023/09/10 01:39:27;;;;;;;11.30;10.50;;;21.60;37.90;;;;;;10477795;28;20296;-70
2023/09/10 01:44:33;;;;;;;10.93;10.03;;;21.60;37.90;;;;;;10478122;28;20224;-70
2023/09/10 01:49:37;;;;;;;12.00;11.00;;;21.60;37.90;;;;;;10477818;28;20234;-70
2023/09/10 01:54:41;;;;;;;11.37;10.47;;;21.50;37.80;;;;;;10453063;28;20315;-70
2023/09/10 01:59:45;;;;;;;11.73;10.83;;;21.50;37.80;;;;;;10477028;28;20615;-70
2023/09/10 02:04:48;;;;;;;11.23;10.33;;;21.50;37.90;;;;;;10477150;28;20228;-69
2023/09/10 02:09:52;;;;;;;11.90;10.90;;;21.50;37.80;;;;;;10477473;28;20315;-70
2023/09/10 02:14:59;;;;;;;12.03;11.03;;;21.40;37.70;;;;;;10476504;28;20222;-70
2023/09/10 02:20:09;;;;;;;11.80;10.80;;;21.40;38.20;;;;;;10476353;28;20307;-70
2023/09/10 02:25:13;;;;;;;12.73;11.63;;;21.40;37.70;;;;;;10476292;28;20240;-70
2023/09/10 02:30:17;;;;;;;12.10;11.20;;;21.40;37.70;;;;;;10476921;28;20255;-70
2023/09/10 02:35:21;;;;;;;12.43;11.43;;;21.30;37.60;;;;;;10476206;28;20232;-70
2023/09/10 02:40:24;;;;;;;11.73;10.80;;;21.20;37.60;;;;;;10461744;28;20229;-69
2023/09/10 02:45:29;;;;;;;12.40;11.40;;;21.20;37.70;;;;;;10465658;28;20307;-70
2023/09/10 02:50:32;;;;;;;12.33;11.33;;;21.10;38.40;;;;;;10475472;28;20224;-70
2023/09/10 02:55:35;;;;;;;11.80;10.80;;;21.00;38.10;;;;;;10475978;28;20831;-70
2023/09/10 03:00:40;;;;;;;11.47;10.50;;;20.90;38.20;;;;;;10476338;28;20239;-70
2023/09/10 03:05:43;;;;;;;11.30;10.40;;;20.90;38.70;;;;;;10475204;28;20340;-70
2023/09/10 03:10:46;;;;;;;12.33;11.10;;;20.80;38.30;;;;;;10476313;28;20228;-70
2023/09/10 03:15:51;;;;;;;10.77;9.90;;;20.80;38.40;;;;;;10475886;28;20228;-70
2023/09/10 03:20:55;;;;;;;11.23;10.33;;;20.80;38.60;;;;;;10476922;28;20231;-70
2023/09/10 03:25:58;;;;;;;11.13;10.13;;;20.90;38.40;;;;;;10482728;28;20226;-69
2023/09/10 03:31:04;;;;;;;12.17;11.10;;;20.90;38.60;;;;;;10483900;28;20248;-70
2023/09/10 03:36:09;;;;;;;12.77;11.67;;;20.90;38.90;;;;;;10482192;28;20608;-70
2023/09/10 03:41:12;;;;;;;11.57;10.70;;;20.80;38.40;;;;;;10482980;28;20259;-69
2023/09/10 03:46:17;;;;;;;12.13;11.13;;;20.70;38.40;;;;;;10482887;28;20236;-70
2023/09/10 03:51:20;;;;;;;11.47;10.53;;;20.60;38.80;;;;;;10483296;28;20247;-70
2023/09/10 03:56:24;;;;;;;12.47;11.30;;;20.50;38.70;;;;;;10481619;28;20277;-69
2023/09/10 04:01:29;;;;;;;11.03;10.23;;;20.40;38.90;;;;;;10482913;28;20520;-69
2023/09/10 04:06:32;;;;;;;12.97;11.97;;;20.30;39.40;;;;;;10459612;28;20260;-70
2023/09/10 04:11:36;;;;;;;10.90;9.90;;;20.30;39.30;;;;;;10409670;28;20253;-70
2023/09/10 04:16:41;;;;;;;10.57;9.73;;;20.20;39.10;;;;;;10398770;28;20224;-70
2023/09/10 04:21:44;;;;;;;11.20;10.23;;;20.10;39.60;;;;;;10399259;28;20229;-70
2023/09/10 04:26:47;;;;;;;12.73;11.70;;;20.10;39.40;;;;;;10398172;28;20257;-70
2023/09/10 04:31:52;;;;;;;11.57;10.67;;;20.10;39.40;;;;;;10406224;28;20704;-70
2023/09/10 04:36:55;;;;;;;12.03;11.13;;;20.00;39.70;;;;;;10439812;28;20231;-70
2023/09/10 04:41:59;;;;;;;11.27;10.37;;;19.90;39.50;;;;;;10439781;28;20251;-70
2023/09/10 04:47:04;;;;;;;10.17;9.47;;;19.80;39.70;;;;;;10438316;28;20306;-70
2023/09/10 04:52:07;;;;;;;10.50;9.60;;;19.80;40.20;;;;;;10439977;28;20865;-70
2023/09/10 04:57:12;;;;;;;10.87;10.07;;;19.80;39.70;;;;;;10437507;28;20772;-69
2023/09/10 05:02:17;;;;;;;10.40;9.60;;;19.90;40.30;;;;;;10439138;28;20579;-70
2023/09/10 05:07:20;;;;;;;12.50;11.40;;;19.90;40.10;;;;;;10438593;28;20271;-70
2023/09/10 05:12:23;;;;;;;11.93;11.03;;;19.90;40.00;;;;;;10438627;28;20228;-69
2023/09/10 05:17:28;;;;;;;11.37;10.43;;;20.00;39.90;;;;;;10437734;28;20685;-69
2023/09/10 05:22:31;;;;;;;11.33;10.33;;;19.90;40.30;;;;;;10438655;28;21093;-70
2023/09/10 05:27:34;;;;;;;10.83;10.00;;;19.90;40.10;;;;;;10436583;28;20290;-69
2023/09/10 05:32:39;;;;;;;10.70;9.70;;;19.90;40.20;;;;;;10437831;28;20232;-69
2023/09/10 05:37:42;;;;;;;13.23;11.77;;;19.90;40.60;;;;;;10437007;28;20233;-69
2023/09/10 05:42:46;;;;;;;11.23;10.33;;;20.00;40.50;;;;;;10436673;28;20603;-69
2023/09/10 05:47:51;;;;;;;11.93;10.93;;;19.90;40.50;;;;;;10436506;28;20599;-69
2023/09/10 05:52:56;;;;;;;12.10;11.20;;;20.00;41.30;;;;;;10437287;28;20233;-69
2023/09/10 05:57:59;;;;;;;12.27;11.27;;;20.10;40.90;;;;;;10435658;28;20316;-69
2023/09/10 06:03:07;;;;;;;11.47;10.57;;;20.10;41.20;;;;;;10436543;28;20229;-69
2023/09/10 06:08:10;;;;;;;11.87;10.97;;;20.30;41.90;;;;;;10436420;28;20233;-69
2023/09/10 06:13:13;;;;;;;11.80;10.80;;;20.20;42.30;;;;;;10436288;28;20228;-69
2023/09/10 06:18:18;;;;;;;13.63;12.50;;;20.20;41.70;;;;;;10435766;28;20335;-69
2023/09/10 06:23:21;;;;;;;14.27;13.00;;;20.30;42.50;;;;;;10436259;28;20291;-69
2023/09/10 06:28:25;;;;;;;13.73;12.63;;;20.30;42.00;;;;;;10436086;28;20237;-69
2023/09/10 06:33:30;;;;;;;15.30;14.10;;;20.40;42.40;;;;;;10435124;28;20248;-69
2023/09/10 06:38:34;;;;;;;15.10;13.73;;;20.50;43.20;;;;;;10435259;28;20286;-69
2023/09/10 06:43:37;;;;;;;17.43;16.03;;;20.60;42.80;;;;;;10405015;28;20308;-69
2023/09/10 06:48:41;;;;;;;16.37;14.93;;;20.70;43.10;;;;;;10448593;28;20738;-69
2023/09/10 06:53:44;;;;;;;15.70;14.50;;;20.70;43.80;;;;;;10476844;28;20224;-69
2023/09/10 06:58:48;;;;;;;16.13;14.83;;;20.90;43.50;;;;;;10475498;28;20234;-69
2023/09/10 07:03:55;;;;;;;17.27;15.87;;;21.00;43.60;;;;;;10476052;28;20230;-69
2023/09/10 07:08:58;;;;;;;18.03;16.57;;;21.10;44.70;;;;;;10475802;28;20232;-69
2023/09/10 07:14:02;;;;;;;17.30;15.70;;;21.20;44.20;;;;;;10475884;28;20224;-69
2023/09/10 07:19:07;;;;;;;17.90;16.30;;;21.30;44.40;;;;;;10474708;28;20232;-69
2023/09/10 07:24:10;;;;;;;19.00;17.50;;;21.50;45.60;;;;;;10475394;28;20323;-69
2023/09/10 07:29:15;;;;;;;19.90;18.30;;;21.60;45.10;;;;;;10475334;28;20238;-69
2023/09/10 07:34:21;;;;;;;19.87;18.27;;;21.80;45.30;;;;;;10474983;28;20224;-69
2023/09/10 07:39:24;;;;;;;19.80;18.23;;;21.90;46.50;;;;;;10475191;28;20751;-69
2023/09/10 07:44:27;;;;;;;20.83;19.03;;;22.10;45.80;;;;;;10476618;28;20234;-69
2023/09/10 07:49:31;;;;;;;20.87;19.17;;;22.30;46.30;;;;;;10457306;28;20313;-69
2023/09/10 07:54:35;;;;;;;21.43;19.53;;;22.50;47.50;;;;;;10432917;28;20235;-69
2023/09/10 07:59:39;;;;;;;22.33;20.53;;;22.80;46.90;;;;;;10433847;28;20236;-69
2023/09/10 08:04:43;;;;;;;22.60;20.60;;;23.10;46.90;;;;;;10432785;28;20733;-69
2023/09/10 08:09:47;;;;;;;22.30;20.40;;;23.50;47.70;;;;;;10438542;28;20229;-69
2023/09/10 08:14:50;;;;;;;22.20;20.40;;;23.80;46.80;;;;;;10441033;28;20284;-68
2023/09/10 08:19:54;;;;;;;22.13;20.07;;;24.10;46.80;;;;;;10440247;28;20231;-69
2023/09/10 08:24:58;;;;;;;22.17;20.40;;;24.30;47.00;;;;;;10440909;28;20248;-69
2023/09/10 08:30:01;;;;;;;23.20;21.30;;;24.70;46.40;;;;;;10440828;28;20237;-69
2023/09/10 08:35:07;;;;;;;24.20;22.30;;;25.00;46.00;;;;;;10439727;28;20257;-69
2023/09/10 08:40:11;;;;;;;21.73;20.07;;;25.20;46.20;;;;;;10439445;28;20731;-69
2023/09/10 08:45:14;;;;;;;20.40;18.83;;;25.50;45.90;;;;;;10439999;28;20628;-68
2023/09/10 08:50:20;;;;;;;20.27;18.67;;;25.80;45.30;;;;;;10439224;28;20332;-69
2023/09/10 08:55:24;;;;;;;20.17;18.57;;;26.10;45.00;;;;;;10439135;28;20390;-69
2023/09/10 09:00:28;;;;;;;19.20;17.70;;;26.40;44.90;;;;;;10439256;28;20229;-68
2023/09/10 09:05:33;;;;;;;20.37;18.77;;;26.80;44.20;;;;;;10439598;28;20224;-69
2023/09/10 09:10:37;;;;;;;20.77;18.97;;;27.10;44.10;;;;;;10438152;28;20844;-69
2023/09/10 09:15:41;;;;;;;19.40;17.97;;;27.30;43.10;;;;;;10439130;28;20488;-68
2023/09/10 09:20:51;;;;;;;19.60;18.10;;;27.60;42.60;;;;;;10437660;28;20590;-69
2023/09/10 09:25:56;;;;;;;18.40;17.03;;;27.80;42.80;;;;;;10429875;28;20829;-69
2023/09/10 09:31:00;;;;;;;18.40;16.93;;;28.10;42.80;;;;;;10437178;28;20705;-69
2023/09/10 09:36:09;;;;;;;17.73;16.33;;;28.40;42.30;;;;;;10437496;28;20217;-68
2023/09/10 09:41:14;;;;;;;17.53;16.23;;;28.70;41.30;;;;;;10442598;28;20235;-69
2023/09/10 09:46:17;;;;;;;17.80;16.40;;;29.00;41.10;;;;;;10445352;28;20236;-68
2023/09/10 09:51:22;;;;;;;17.70;16.37;;;29.20;40.50;;;;;;10403742;28;20317;-69
2023/09/10 09:56:25;;;;;;;17.63;16.23;;;29.40;39.90;;;;;;10396066;28;20243;-69
2023/09/10 10:01:30;;;;;;;16.83;15.53;;;29.70;39.80;;;;;;10395891;28;20237;-69
2023/09/10 10:06:36;;;;;;;17.33;15.93;;;29.80;39.60;;;;;;10395245;28;20251;-69
2023/09/10 10:11:52;;;;;;;14.53;13.53;;;30.10;38.80;;;;;;10413934;28;20224;-70
2023/09/10 10:16:56;;;;;;;14.37;13.17;;;30.20;38.60;;;;;;10477815;28;20232;-69
2023/09/10 10:22:03;;;;;;;14.03;13.03;;;30.40;38.30;;;;;;10423853;28;20233;-69
2023/09/10 10:27:07;;;;;;;14.90;13.83;;;30.50;36.80;;;;;;10427849;28;20271;-69
2023/09/10 10:32:17;;;;;;;13.10;12.17;;;30.60;36.90;;;;;;10402262;28;20253;-69
2023/09/10 10:37:28;;;;;;;11.60;10.80;;;30.80;36.50;;;;;;10409935;28;20233;-69
2023/09/10 10:42:37;;;;;;;11.87;10.87;;;30.90;34.90;;;;;;10401889;28;20232;-69
2023/09/10 10:47:44;;;;;;;9.83;9.13;;;31.10;34.70;;;;;;10420137;28;20416;-69
2023/09/10 10:52:54;;;;;;;9.77;9.07;;;31.20;34.10;;;;;;10404716;28;20228;-69
2023/09/10 10:57:57;;;;;;;9.43;8.83;;;31.30;34.10;;;;;;10446430;28;20304;-68
2023/09/10 11:03:10;;;;;;;9.40;8.70;;;31.40;34.50;;;;;;10423481;28;20228;-69
2023/09/10 11:08:31;;;;;;;9.87;9.07;;;31.40;32.50;;;;;;10416634;28;20220;-68
2023/09/10 11:13:35;;;;;;;9.13;8.43;;;31.50;33.70;;;;;;10444249;28;20225;-68
2023/09/10 11:18:42;;;;;;;9.37;8.57;;;31.60;33.80;;;;;;10429268;28;20701;-67
2023/09/10 11:24:27;;;;;;;9.40;8.80;;;31.60;32.60;;;;;;10434502;28;20232;-67
2023/09/10 11:29:30;;;;;;;10.17;9.37;;;31.80;33.40;;;;;;10277687;28;20940;-67
2023/09/10 11:34:38;;;;;;;9.23;8.63;;;31.80;32.70;;;;;;10386080;28;20227;-67
2023/09/10 11:39:43;;;;;;;9.80;9.07;;;31.80;32.40;;;;;;10433562;28;20743;-66
2023/09/10 11:44:47;;;;;;;9.80;9.00;;;31.90;32.00;;;;;;10440659;28;20228;-67
2023/09/10 11:49:50;;;;;;;9.73;8.93;;;31.90;32.40;;;;;;10442072;28;20318;-67
2023/09/10 11:54:55;;;;;;;9.37;8.70;;;32.00;32.40;;;;;;10418176;28;20295;-67
2023/09/10 11:59:58;;;;;;;9.97;9.27;;;32.00;31.80;;;;;;10401513;28;20233;-66
2023/09/10 12:05:02;;;;;;;9.97;9.27;;;32.00;31.70;;;;;;10399980;28;20749;-67
2023/09/10 12:10:07;;;;;;;9.37;8.67;;;32.00;31.70;;;;;;10399050;28;20330;-68
2023/09/10 12:15:11;;;;;;;8.77;8.17;;;32.00;30.60;;;;;;10434562;28;20228;-67
2023/09/10 12:20:15;;;;;;;8.57;7.97;;;32.00;31.30;;;;;;10441241;28;20251;-67
2023/09/10 12:25:19;;;;;;;8.67;8.07;;;32.00;30.90;;;;;;10452130;28;20228;-67
2023/09/10 12:30:24;;;;;;;8.80;8.20;;;32.10;30.10;;;;;;10481767;28;20235;-67
2023/09/10 12:35:29;;;;;;;8.73;7.93;;;32.10;30.90;;;;;;10447903;28;20924;-68
2023/09/10 12:40:36;;;;;;;9.07;8.37;;;32.10;30.00;;;;;;10431119;28;20225;-67
2023/09/10 12:45:40;;;;;;;8.27;7.67;;;32.10;30.40;;;;;;10418455;28;20236;-67
2023/09/10 12:50:44;;;;;;;8.67;7.97;;;32.20;30.00;;;;;;10421189;28;20408;-67
2023/09/10 12:55:53;;;;;;;8.27;7.67;;;32.20;29.50;;;;;;10420324;28;20229;-68
2023/09/10 13:00:57;;;;;;;8.80;8.07;;;32.20;28.90;;;;;;10424084;28;20307;-67
2023/09/10 13:06:01;;;;;;;8.50;7.90;;;32.20;29.40;;;;;;10431867;28;20240;-68
2023/09/10 13:11:06;;;;;;;8.93;8.23;;;32.20;29.50;;;;;;10423732;28;20300;-67
2023/09/10 13:16:09;;;;;;;9.30;8.50;;;32.20;29.10;;;;;;10410199;28;20952;-68
2023/09/10 13:21:12;;;;;;;9.97;9.17;;;32.20;29.20;;;;;;10416304;28;20319;-68
2023/09/10 13:26:17;;;;;;;9.20;8.50;;;32.20;29.40;;;;;;10433091;28;20232;-69
2023/09/10 13:31:20;;;;;;;9.07;8.37;;;32.10;29.10;;;;;;10438740;28;20303;-68
2023/09/10 13:36:25;;;;;;;8.77;8.07;;;32.10;29.30;;;;;;10441633;28;20224;-67
2023/09/10 13:41:30;;;;;;;9.20;8.60;;;32.20;29.20;;;;;;10400580;28;20220;-68
2023/09/10 13:46:34;;;;;;;9.27;8.57;;;32.10;28.90;;;;;;10428331;28;20920;-68
2023/09/10 13:51:38;;;;;;;9.40;8.70;;;32.10;29.10;;;;;;10451710;28;20835;-69
2023/09/10 13:56:42;;;;;;;8.67;8.07;;;32.20;28.80;;;;;;10432238;28;20231;-68
2023/09/10 14:01:45;;;;;;;8.27;7.67;;;32.20;28.50;;;;;;10414158;28;20648;-68
2023/09/10 14:06:51;;;;;;;8.17;7.60;;;32.20;28.80;;;;;;10424026;28;20705;-68
2023/09/10 14:11:56;;;;;;;8.30;7.50;;;32.30;28.20;;;;;;10408510;28;20319;-68
2023/09/10 14:16:59;;;;;;;8.30;7.63;;;32.30;28.00;;;;;;10430201;28;20225;-68
2023/09/10 14:22:02;;;;;;;8.70;8.00;;;32.30;28.00;;;;;;10439378;28;20228;-68
2023/09/10 14:27:07;;;;;;;8.60;8.00;;;32.30;27.80;;;;;;10434386;28;20724;-69
2023/09/10 14:32:10;;;;;;;8.70;8.10;;;32.30;27.10;;;;;;10415221;28;20228;-68
2023/09/10 14:37:13;;;;;;;8.83;8.23;;;32.40;27.50;;;;;;10419790;28;20228;-68
2023/09/10 14:42:18;;;;;;;8.37;7.77;;;32.40;27.50;;;;;;10405005;28;20230;-69
2023/09/10 14:47:22;;;;;;;8.47;7.87;;;32.40;26.90;;;;;;10396870;28;20237;-69
2023/09/10 14:52:25;;;;;;;8.40;7.70;;;32.40;27.30;;;;;;10433730;28;20240;-67
2023/09/10 14:57:30;;;;;;;8.40;7.80;;;32.40;27.20;;;;;;10412272;28;20228;-67
2023/09/10 15:02:34;;;;;;;8.60;7.80;;;32.40;26.50;;;;;;10432978;28;20912;-67
2023/09/10 15:07:41;;;;;;;8.17;7.50;;;32.40;26.80;;;;;;10418977;28;20232;-68
2023/09/10 15:12:46;;;;;;;8.23;7.63;;;32.40;27.00;;;;;;10419920;28;20256;-68
2023/09/10 15:17:50;;;;;;;8.40;7.80;;;32.40;26.30;;;;;;10418365;28;20312;-67
2023/09/10 15:22:54;;;;;;;9.23;8.43;;;32.50;26.70;;;;;;10417299;28;20229;-67
2023/09/10 15:27:58;;;;;;;8.43;7.83;;;32.50;27.50;;;;;;10419621;28;20244;-67
2023/09/10 15:33:02;;;;;;;8.50;7.90;;;32.50;26.30;;;;;;10440632;28;20643;-67
2023/09/10 15:38:05;;;;;;;8.20;7.70;;;32.50;26.60;;;;;;10426994;28;20294;-68
2023/09/10 15:43:10;;;;;;;8.50;7.90;;;32.50;26.40;;;;;;10418789;28;20235;-68
2023/09/10 15:48:13;;;;;;;8.30;7.70;;;32.50;26.80;;;;;;10418293;28;20359;-68
2023/09/10 15:53:16;;;;;;;8.40;7.60;;;32.50;26.70;;;;;;10403041;28;20261;-67
2023/09/10 15:58:21;;;;;;;17.17;8.83;;;32.50;26.50;;;;;;10426483;28;20294;-68
2023/09/10 16:03:28;;;;;;;9.27;8.37;;;32.50;26.40;;;;;;10394242;28;20721;-67
2023/09/10 16:08:31;;;;;;;8.87;8.27;;;32.60;26.80;;;;;;10433472;28;20232;-68
2023/09/10 16:13:38;;;;;;;9.73;8.93;;;32.50;27.00;;;;;;10429586;28;20779;-67
2023/09/10 16:18:41;;;;;;;10.43;9.50;;;32.50;27.00;;;;;;10435699;28;20840;-68
2023/09/10 16:23:44;;;;;;;9.67;8.97;;;32.50;26.80;;;;;;10467217;28;20278;-68
2023/09/10 16:28:49;;;;;;;9.90;9.20;;;32.40;26.90;;;;;;10436158;28;20234;-66
2023/09/10 16:33:52;;;;;;;9.67;8.97;;;32.40;27.00;;;;;;10452327;28;20243;-67
2023/09/10 16:38:55;;;;;;;10.80;10.00;;;32.30;27.40;;;;;;10447592;28;20248;-68
2023/09/10 16:44:00;;;;;;;10.80;10.00;;;32.20;28.30;;;;;;10448569;28;20701;-69
2023/09/10 16:49:04;;;;;;;11.37;10.57;;;32.20;28.50;;;;;;10435056;28;20271;-69
2023/09/10 16:54:07;;;;;;;11.53;10.73;;;32.10;28.20;;;;;;10450167;28;20229;-68
2023/09/10 16:59:11;;;;;;;11.90;11.00;;;32.00;28.30;;;;;;10462652;28;20316;-69
2023/09/10 17:04:15;;;;;;;12.27;11.27;;;31.90;28.80;;;;;;10445809;28;20256;-69
2023/09/10 17:09:18;;;;;;;11.67;10.87;;;31.80;28.80;;;;;;10432971;28;20736;-69
2023/09/10 17:14:23;;;;;;;12.10;11.20;;;31.70;28.90;;;;;;10438745;28;25590;-68
2023/09/10 17:19:26;;;;;;;11.67;10.67;;;31.60;28.90;;;;;;10422248;28;20271;-65
2023/09/10 17:24:30;;;;;;;11.20;10.37;;;31.50;28.90;;;;;;10438872;28;20232;-67
2023/09/10 17:29:34;;;;;;;11.40;10.27;;;31.40;29.20;;;;;;10437961;28;20236;-67
2023/09/10 17:34:38;;;;;;;10.27;9.47;;;31.30;29.50;;;;;;10438161;28;20229;-68
2023/09/10 17:39:41;;;;;;;10.37;9.37;;;31.20;29.40;;;;;;10437371;28;20239;-69
2023/09/10 17:44:45;;;;;;;10.03;9.23;;;31.10;29.40;;;;;;10438306;28;20236;-68
2023/09/10 17:49:49;;;;;;;10.90;8.67;;;30.90;29.40;;;;;;10438497;28;20327;-69
2023/09/10 17:55:08;;;;;;;10.03;9.23;;;30.70;29.40;;;;;;10437749;28;20224;-69
2023/09/10 18:00:16;;;;;;;9.43;8.70;;;30.60;29.70;;;;;;10437258;28;20880;-69
2023/09/10 18:05:20;;;;;;;11.60;10.60;;;30.50;30.00;;;;;;10449491;28;20228;-68
2023/09/10 18:10:24;;;;;;;10.93;10.13;;;30.30;30.00;;;;;;10472139;28;20237;-69
2023/09/10 18:15:29;;;;;;;11.80;10.90;;;30.20;30.00;;;;;;10436088;28;20221;-69
2023/09/10 18:20:32;;;;;;;13.27;12.17;;;29.90;30.40;;;;;;10445402;28;20254;-68
2023/09/10 18:25:36;;;;;;;14.23;13.13;;;29.70;30.50;;;;;;10477981;28;20232;-69
2023/09/10 18:30:40;;;;;;;14.73;13.43;;;29.40;31.10;;;;;;10476667;28;20233;-70
2023/09/10 18:35:45;;;;;;;12.57;11.47;;;29.20;31.00;;;;;;10477267;28;20224;-68
2023/09/10 18:40:49;;;;;;;11.63;10.63;;;28.90;30.90;;;;;;10477639;28;20232;-69
2023/09/10 18:45:56;;;;;;;11.13;10.33;;;28.80;31.10;;;;;;10452526;28;20304;-70
2023/09/10 18:51:02;;;;;;;10.57;9.77;;;28.70;32.20;;;;;;10426824;28;20336;-69
2023/09/10 18:56:06;;;;;;;13.10;11.93;;;28.60;32.20;;;;;;10417900;28;20241;-69
2023/09/10 19:01:11;;;;;;;12.27;11.27;;;28.50;31.80;;;;;;10450777;28;20228;-70
2023/09/10 19:06:14;;;;;;;13.73;12.60;;;28.40;32.40;;;;;;10425186;28;20491;-70
2023/09/10 19:11:17;;;;;;;12.67;11.67;;;28.30;32.20;;;;;;10439631;28;20224;-69
2023/09/10 19:16:22;;;;;;;14.10;12.90;;;28.10;32.30;;;;;;10446442;28;20709;-69
2023/09/10 19:21:25;;;;;;;14.13;12.93;;;28.00;32.80;;;;;;10436898;28;20237;-69
2023/09/10 19:26:29;;;;;;;15.47;14.17;;;27.80;32.50;;;;;;10458961;28;20220;-68
2023/09/10 19:31:33;;;;;;;15.47;14.27;;;27.60;32.70;;;;;;10412107;28;20221;-70
2023/09/10 19:36:37;;;;;;;13.40;12.40;;;27.20;33.70;;;;;;10432219;28;20227;-70
2023/09/10 19:41:40;;;;;;;14.07;12.97;;;26.90;33.80;;;;;;10450934;28;20229;-68
2023/09/10 19:46:45;;;;;;;15.07;13.67;;;26.60;34.30;;;;;;10434154;28;20916;-70
2023/09/10 19:51:51;;;;;;;15.03;13.70;;;26.60;35.20;;;;;;10429027;28;20748;-70
2023/09/10 19:56:54;;;;;;;14.53;13.33;;;26.60;34.90;;;;;;10438664;28;20307;-70
2023/09/10 20:01:59;;;;;;;16.13;14.77;;;26.60;34.80;;;;;;10466809;28;20656;-69
2023/09/10 20:07:03;;;;;;;16.43;14.93;;;26.50;35.40;;;;;;10449735;28;20220;-69
2023/09/10 20:12:07;;;;;;;15.60;14.30;;;26.40;35.00;;;;;;10421328;28;20722;-70
2023/09/10 20:17:11;;;;;;;16.90;15.50;;;26.30;35.20;;;;;;10427066;28;20252;-69
2023/09/10 20:22:16;;;;;;;15.80;14.53;;;26.10;35.70;;;;;;10429879;28;20225;-69
2023/09/10 20:27:19;;;;;;;16.10;14.80;;;26.00;35.40;;;;;;10436941;28;20225;-68
2023/09/10 20:32:24;;;;;;;17.30;15.80;;;25.90;35.70;;;;;;10440165;28;20232;-68
2023/09/10 20:37:27;;;;;;;16.37;14.97;;;25.90;36.30;;;;;;10425292;28;20244;-67
2023/09/10 20:42:31;;;;;;;16.17;14.83;;;25.80;36.00;;;;;;10442572;28;20237;-68
2023/09/10 20:47:36;;;;;;;15.47;14.27;;;25.80;36.00;;;;;;10448864;28;20237;-67
2023/09/10 20:52:39;;;;;;;15.80;14.60;;;25.80;36.50;;;;;;10440125;28;20243;-67
2023/09/10 20:57:43;;;;;;;16.93;15.63;;;25.90;36.20;;;;;;10451599;28;20316;-68
2023/09/10 21:02:48;;;;;;;18.53;16.93;;;25.90;36.20;;;;;;10456329;28;20253;-67
2023/09/10 21:07:51;;;;;;;18.80;17.30;;;25.90;36.60;;;;;;10415667;28;20312;-68
2023/09/10 21:12:55;;;;;;;19.53;17.83;;;25.70;36.20;;;;;;10405531;28;20241;-68
2023/09/10 21:18:15;;;;;;;19.27;17.57;;;25.40;36.50;;;;;;10439180;28;20708;-68
2023/09/10 21:23:19;;;;;;;18.67;17.17;;;25.10;37.60;;;;;;10438258;28;20253;-68
2023/09/10 21:28:22;;;;;;;17.90;16.50;;;24.80;37.40;;;;;;10423060;28;20229;-68
2023/09/10 21:33:27;;;;;;;18.57;16.97;;;24.60;37.70;;;;;;10430083;28;20274;-68
2023/09/10 21:38:30;;;;;;;16.83;15.47;;;24.40;38.50;;;;;;10437845;28;20217;-68
2023/09/10 21:43:33;;;;;;;16.90;15.60;;;24.40;38.00;;;;;;10431001;28;20299;-68
2023/09/10 21:48:38;;;;;;;14.53;13.43;;;24.30;38.10;;;;;;10453614;28;20236;-68
2023/09/10 21:53:41;;;;;;;15.73;14.43;;;24.30;38.50;;;;;;10443504;28;20225;-68
2023/09/10 21:58:45;;;;;;;14.57;13.37;;;24.40;38.10;;;;;;10435350;28;20232;-68
2023/09/10 22:03:49;;;;;;;14.93;13.77;;;24.50;38.00;;;;;;10429810;28;20948;-68
2023/09/10 22:08:57;;;;;;;13.97;12.90;;;24.60;38.40;;;;;;10433662;28;20320;-68
2023/09/10 22:14:00;;;;;;;14.63;13.53;;;24.60;37.80;;;;;;10431551;28;20232;-68
2023/09/10 22:19:05;;;;;;;15.37;14.27;;;24.60;37.70;;;;;;10459884;28;20224;-68
2023/09/10 22:24:08;;;;;;;14.13;13.03;;;24.60;38.00;;;;;;10460936;28;20229;-69
2023/09/10 22:29:11;;;;;;;15.37;14.07;;;24.60;37.70;;;;;;10418853;28;20310;-69
2023/09/10 22:34:16;;;;;;;14.70;13.57;;;24.60;37.80;;;;;;10451866;28;20236;-68
2023/09/10 22:39:20;;;;;;;14.50;13.20;;;24.70;38.10;;;;;;10412296;28;20853;-69
2023/09/10 22:44:23;;;;;;;14.07;12.97;;;24.60;37.70;;;;;;10434719;28;20235;-68
2023/09/10 22:49:27;;;;;;;14.07;12.87;;;24.60;37.80;;;;;;10460175;28;20398;-68
2023/09/10 22:54:31;;;;;;;15.20;13.70;;;24.60;38.20;;;;;;10445653;28;20232;-68
2023/09/10 22:59:34;;;;;;;14.20;13.10;;;24.60;38.00;;;;;;10440309;28;20326;-68
2023/09/10 23:04:39;;;;;;;14.27;13.07;;;24.60;37.90;;;;;;10459857;28;20291;-68
2023/09/10 23:09:42;;;;;;;14.53;13.27;;;24.60;38.10;;;;;;10419284;28;20256;-73
2023/09/10 23:14:45;;;;;;;12.97;11.97;;;24.50;37.60;;;;;;10404962;28;20230;-73
2023/09/10 23:19:50;;;;;;;13.70;12.47;;;24.50;37.60;;;;;;10404104;28;20240;-73
2023/09/10 23:24:54;;;;;;;12.23;11.33;;;24.50;37.90;;;;;;10404951;28;20857;-73
2023/09/10 23:29:58;;;;;;;13.93;12.73;;;24.40;37.60;;;;;;10398974;28;20249;-73
2023/09/10 23:35:02;;;;;;;13.70;12.60;;;24.30;37.70;;;;;;10402610;28;20897;-73
2023/09/10 23:40:07;;;;;;;12.50;11.57;;;24.30;38.20;;;;;;10411166;28;20252;-73
2023/09/10 23:45:12;;;;;;;13.53;12.43;;;24.20;38.00;;;;;;10408022;28;20656;-73
2023/09/10 23:50:17;;;;;;;13.10;12.00;;;24.10;38.10;;;;;;10408186;28;20232;-74
2023/09/10 23:55:20;;;;;;;11.30;10.40;;;24.00;38.60;;;;;;10408891;28;20705;-73
